createdAt,value
2023-04-23T00:02:02.957Z,79.33
2023-04-23T00:04:36.486Z,80.03
2023-04-23T00:07:04.167Z,79.26
2023-04-23T00:09:32.561Z,78.83
2023-04-23T00:12:01.836Z,77.60
2023-04-23T00:14:28.811Z,77.20
2023-04-23T00:16:55.940Z,77.39
2023-04-23T00:19:22.633Z,77.82
2023-04-23T00:21:49.419Z,76.86
2023-04-23T00:24:16.141Z,77.13
2023-04-23T00:26:42.846Z,76.64
2023-04-23T00:29:09.727Z,76.80
2023-04-23T00:31:36.421Z,76.67
2023-04-23T00:34:03.367Z,75.83
2023-04-23T00:36:30.725Z,75.91
2023-04-23T00:38:57.473Z,75.14
2023-04-23T00:41:24.689Z,75.38
2023-04-23T00:43:53.078Z,76.13
2023-04-23T00:46:20.214Z,75.66
2023-04-23T00:48:47.625Z,75.90
2023-04-23T00:51:16.793Z,76.84
2023-04-23T00:53:43.404Z,76.95
2023-04-23T00:56:10.739Z,76.85
2023-04-23T00:58:38.150Z,77.17
2023-04-23T01:01:04.969Z,76.54
2023-04-23T01:03:36.294Z,76.13
2023-04-23T01:06:03.996Z,76.73
2023-04-23T01:08:32.112Z,76.59
2023-04-23T01:10:59.944Z,75.68
2023-04-23T01:13:29.530Z,74.91
2023-04-23T01:15:57.265Z,75.15
2023-04-23T01:18:24.665Z,74.44
2023-04-23T01:20:51.629Z,74.69
2023-04-23T01:23:18.566Z,74.29
2023-04-23T01:25:46.309Z,74.29
2023-04-23T01:28:13.812Z,74.38
2023-04-23T01:30:43.397Z,73.79
2023-04-23T01:33:11.297Z,73.46
2023-04-23T01:35:39.249Z,73.10
2023-04-23T01:38:09.420Z,73.16
2023-04-23T01:40:36.587Z,73.66
2023-04-23T01:43:04.495Z,73.41
2023-04-23T01:45:31.866Z,73.39
2023-04-23T01:48:00.430Z,73.66
2023-04-23T01:50:29.107Z,73.36
2023-04-23T01:52:55.966Z,72.83
2023-04-23T01:55:23.680Z,73.20
2023-04-23T01:57:51.556Z,73.54
2023-04-23T02:00:18.740Z,73.36
2023-04-23T02:02:45.574Z,73.82
2023-04-23T02:05:16.422Z,73.15
2023-04-23T02:07:44.372Z,72.87
2023-04-23T02:10:11.515Z,73.27
2023-04-23T02:12:38.857Z,73.04
2023-04-23T02:15:07.308Z,73.12
2023-04-23T02:17:34.214Z,73.29
2023-04-23T02:20:01.333Z,73.11
2023-04-23T02:22:28.590Z,72.95
2023-04-23T02:24:55.323Z,73.37
2023-04-23T02:27:22.157Z,73.97
2023-04-23T02:29:49.011Z,73.41
2023-04-23T02:32:15.819Z,73.13
2023-04-23T02:34:43.086Z,74.35
2023-04-23T02:37:10.299Z,73.68
2023-04-23T02:39:39.026Z,73.47
2023-04-23T02:42:06.347Z,73.60
2023-04-23T02:44:33.223Z,73.66
2023-04-23T02:47:00.569Z,73.17
2023-04-23T02:49:27.310Z,73.00
2023-04-23T02:51:54.108Z,72.99
2023-04-23T02:54:20.794Z,72.92
2023-04-23T02:56:47.759Z,73.11
2023-04-23T02:59:14.470Z,72.85
2023-04-23T03:01:41.395Z,72.63
2023-04-23T03:04:09.921Z,72.64
2023-04-23T03:06:37.342Z,72.23
2023-04-23T03:09:04.902Z,72.00
2023-04-23T03:11:31.710Z,72.30
2023-04-23T03:13:58.441Z,72.27
2023-04-23T03:16:26.911Z,72.63
2023-04-23T03:18:53.736Z,73.29
2023-04-23T03:21:20.554Z,73.02
2023-04-23T03:23:47.276Z,73.65
2023-04-23T03:26:14.011Z,74.24
2023-04-23T03:28:40.644Z,73.58
2023-04-23T03:31:07.380Z,73.14
2023-04-23T03:33:34.147Z,73.33
2023-04-23T03:36:00.805Z,73.01
2023-04-23T03:38:30.692Z,72.99
2023-04-23T03:40:58.745Z,72.97
2023-04-23T03:43:25.651Z,72.67
2023-04-23T03:46:12.273Z,73.17
2023-04-23T03:48:41.612Z,73.49
2023-04-23T03:51:18.032Z,73.10
2023-04-23T03:53:48.988Z,73.06
2023-04-23T03:56:44.756Z,73.82
2023-04-23T03:59:11.975Z,74.24
2023-04-23T04:01:38.722Z,74.14
2023-04-23T04:04:05.612Z,73.90
2023-04-23T04:06:33.199Z,73.84
2023-04-23T04:08:59.819Z,74.15
2023-04-23T04:11:26.786Z,74.38
2023-04-23T04:13:53.426Z,74.42
2023-04-23T04:16:20.161Z,74.12
2023-04-23T04:18:46.832Z,74.21
2023-04-23T04:21:13.598Z,74.04
2023-04-23T04:23:40.223Z,74.13
2023-04-23T04:26:08.171Z,74.00
2023-04-23T04:28:37.252Z,73.76
2023-04-23T04:31:05.564Z,73.76
2023-04-23T04:33:35.579Z,74.02
2023-04-23T04:36:02.283Z,74.12
2023-04-23T04:38:29.802Z,74.44
2023-04-23T04:41:00.217Z,74.41
2023-04-23T04:43:27.080Z,73.56
2023-04-23T04:45:53.819Z,74.08
2023-04-23T04:48:20.724Z,74.10
2023-04-23T04:50:47.947Z,74.14
2023-04-23T04:53:14.657Z,74.00
2023-04-23T04:55:41.564Z,73.89
2023-04-23T04:58:08.219Z,74.09
2023-04-23T05:00:34.885Z,74.01
2023-04-23T05:03:01.854Z,73.78
2023-04-23T05:05:28.548Z,73.40
2023-04-23T05:07:55.275Z,73.13
2023-04-23T05:10:21.895Z,72.90
2023-04-23T05:12:48.613Z,73.61
2023-04-23T05:15:15.475Z,73.36
2023-04-23T05:17:42.772Z,73.76
2023-04-23T05:20:10.922Z,73.55
2023-04-23T05:22:42.130Z,73.21
2023-04-23T05:25:10.498Z,73.08
2023-04-23T05:27:37.390Z,72.70
2023-04-23T05:30:06.185Z,72.67
2023-04-23T05:32:33.526Z,72.20
2023-04-23T05:35:02.714Z,71.47
2023-04-23T05:37:31.100Z,70.60
2023-04-23T05:40:00.714Z,71.14
2023-04-23T05:42:27.441Z,70.43
2023-04-23T05:44:54.401Z,70.05
2023-04-23T05:47:21.594Z,70.63
2023-04-23T05:49:48.237Z,70.31
2023-04-23T05:52:15.403Z,70.03
2023-04-23T05:54:42.502Z,70.46
2023-04-23T05:57:09.546Z,70.38
2023-04-23T05:59:36.175Z,71.24
2023-04-23T06:02:03.003Z,70.83
2023-04-23T06:04:29.890Z,70.01
2023-04-23T06:06:56.759Z,70.27
2023-04-23T06:09:23.509Z,70.44
2023-04-23T06:11:52.295Z,70.53
2023-04-23T06:14:18.973Z,70.28
2023-04-23T06:16:45.653Z,70.67
2023-04-23T06:19:12.832Z,70.55
2023-04-23T06:21:39.600Z,69.20
2023-04-23T06:24:08.026Z,69.25
2023-04-23T06:26:35.047Z,67.44
2023-04-23T06:29:09.975Z,67.02
2023-04-23T06:32:02.560Z,66.34
2023-04-23T06:34:29.286Z,65.83
2023-04-23T06:36:57.026Z,64.62
2023-04-23T06:39:23.732Z,65.40
2023-04-23T06:41:50.631Z,65.75
2023-04-23T06:44:34.328Z,66.02
2023-04-23T06:47:02.012Z,66.38
2023-04-23T06:49:28.652Z,65.85
2023-04-23T06:51:57.550Z,65.09
2023-04-23T06:54:24.487Z,66.73
2023-04-23T06:56:51.150Z,65.70
2023-04-23T06:59:17.841Z,66.14
2023-04-23T07:01:47.486Z,64.30
2023-04-23T07:04:14.273Z,64.21
2023-04-23T07:06:40.908Z,64.36
2023-04-23T07:09:07.529Z,64.03
2023-04-23T07:11:36.509Z,64.38
2023-04-23T07:14:03.901Z,64.31
2023-04-23T07:16:33.477Z,64.52
2023-04-23T07:19:02.235Z,64.48
2023-04-23T07:21:29.229Z,65.02
2023-04-23T07:23:57.480Z,64.23
2023-04-23T07:26:25.361Z,64.20
2023-04-23T07:28:52.874Z,62.95
2023-04-23T07:31:20.639Z,62.48
2023-04-23T07:33:47.835Z,62.94
2023-04-23T07:36:14.491Z,62.78
2023-04-23T07:38:41.244Z,62.51
2023-04-23T07:41:08.111Z,62.01
2023-04-23T07:43:34.850Z,61.63
2023-04-23T07:46:01.850Z,61.32
2023-04-23T07:48:28.606Z,58.49
2023-04-23T07:50:55.626Z,58.56
2023-04-23T07:53:22.673Z,56.61
2023-04-23T07:55:49.360Z,56.38
2023-04-23T07:58:16.048Z,54.40
2023-04-23T08:00:42.764Z,53.47
2023-04-23T08:03:09.483Z,53.08
2023-04-23T08:05:38.415Z,52.68
2023-04-23T08:08:05.150Z,53.19
2023-04-23T08:10:32.093Z,53.37
2023-04-23T08:12:58.767Z,52.35
2023-04-23T08:15:25.423Z,51.37
2023-04-23T08:17:52.140Z,51.27
2023-04-23T08:20:19.209Z,51.65
2023-04-23T08:22:45.975Z,53.18
2023-04-23T08:25:13.248Z,53.60
2023-04-23T08:27:39.890Z,53.26
2023-04-23T08:30:08.288Z,54.84
2023-04-23T08:32:35.154Z,54.39
2023-04-23T08:35:01.873Z,54.15
2023-04-23T08:37:31.345Z,54.65
2023-04-23T08:39:58.413Z,55.79
2023-04-23T08:42:57.275Z,56.24
2023-04-23T08:45:24.751Z,54.43
2023-04-23T08:47:51.538Z,53.62
2023-04-23T08:50:20.026Z,52.12
2023-04-23T08:52:55.445Z,53.10
2023-04-23T08:55:23.184Z,53.38
2023-04-23T08:57:50.476Z,53.51
2023-04-23T09:00:19.597Z,53.71
2023-04-23T09:02:48.380Z,52.87
2023-04-23T09:05:16.921Z,53.26
2023-04-23T09:07:44.365Z,53.48
2023-04-23T09:10:13.387Z,53.54
2023-04-23T09:12:43.738Z,53.88
2023-04-23T09:15:11.860Z,53.29
2023-04-23T09:17:41.028Z,52.47
2023-04-23T09:20:11.470Z,51.76
2023-04-23T09:22:47.900Z,50.66
2023-04-23T09:25:20.628Z,51.51
2023-04-23T09:27:49.009Z,52.55
2023-04-23T09:30:17.089Z,52.82
2023-04-23T09:32:49.441Z,50.36
2023-04-23T09:35:19.798Z,47.01
2023-04-23T09:37:49.630Z,44.44
2023-04-23T09:40:20.264Z,44.22
2023-04-23T09:42:49.597Z,46.76
2023-04-23T09:45:16.938Z,47.96
2023-04-23T09:47:51.778Z,48.74
2023-04-23T09:50:35.860Z,47.75
2023-04-23T09:53:03.380Z,48.33
2023-04-23T09:55:40.685Z,46.98
2023-04-23T09:58:15.707Z,46.13
2023-04-23T10:00:43.082Z,46.17
2023-04-23T10:03:10.982Z,45.47
2023-04-23T10:08:14.424Z,45.85
2023-04-23T10:10:55.177Z,45.41
2023-04-23T10:13:27.374Z,45.52
2023-04-23T10:15:55.023Z,45.44
2023-04-23T10:18:21.979Z,46.37
2023-04-23T10:20:49.985Z,48.31
2023-04-23T10:23:19.313Z,47.49
2023-04-23T10:25:47.699Z,47.52
2023-04-23T10:28:21.825Z,48.28
2023-04-23T10:30:49.668Z,47.68
2023-04-23T10:33:29.019Z,48.24
2023-04-23T10:35:57.872Z,45.97
2023-04-23T10:38:28.286Z,44.98
2023-04-23T10:40:58.636Z,42.05
2023-04-23T10:43:25.789Z,41.88
2023-04-23T10:45:53.692Z,42.37
2023-04-23T10:48:20.993Z,38.66
2023-04-23T10:51:09.754Z,38.49
2023-04-23T10:53:45.896Z,38.69
2023-04-23T10:56:12.665Z,38.17
2023-04-23T10:58:50.577Z,36.67
2023-04-23T11:01:21.894Z,37.04
2023-04-23T11:03:48.833Z,34.09
2023-04-23T11:06:39.498Z,30.53
2023-04-23T11:09:28.793Z,30.49
2023-04-23T11:11:55.680Z,31.09
2023-04-23T11:14:34.833Z,28.02
2023-04-23T11:17:02.859Z,26.24
2023-04-23T11:19:30.199Z,25.86
2023-04-23T11:21:58.446Z,24.15
2023-04-23T11:24:42.790Z,26.21
2023-04-23T11:27:19.731Z,27.23
2023-04-23T11:29:49.755Z,25.67
2023-04-23T11:32:17.442Z,25.74
2023-04-23T11:34:45.563Z,25.02
2023-04-23T11:37:17.530Z,25.36
2023-04-23T11:39:45.928Z,27.98
2023-04-23T11:42:14.468Z,27.59
2023-04-23T11:44:42.859Z,28.35
2023-04-23T11:47:14.328Z,28.39
2023-04-23T11:49:44.047Z,27.77
2023-04-23T11:52:11.906Z,27.75
2023-04-23T11:54:41.717Z,25.59
2023-04-23T11:57:08.757Z,25.32
2023-04-23T11:59:35.626Z,25.76
2023-04-23T12:02:02.271Z,25.98
2023-04-23T12:04:30.562Z,26.20
2023-04-23T12:06:58.869Z,26.99
2023-04-23T12:09:28.200Z,27.46
2023-04-23T12:11:56.801Z,27.58
2023-04-23T12:14:30.846Z,27.51
2023-04-23T12:16:59.041Z,27.32
2023-04-23T12:19:31.073Z,26.97
2023-04-23T12:22:02.398Z,26.56
2023-04-23T12:24:46.550Z,27.73
2023-04-23T12:27:20.310Z,27.94
2023-04-23T12:29:47.932Z,28.79
2023-04-23T12:32:15.545Z,29.23
2023-04-23T12:34:55.590Z,29.16
2023-04-23T12:37:30.472Z,28.29
2023-04-23T12:39:59.647Z,30.31
2023-04-23T12:42:26.538Z,30.09
2023-04-23T12:44:55.606Z,31.94
2023-04-23T12:47:22.670Z,31.76
2023-04-23T12:49:53.083Z,31.89
2023-04-23T12:52:20.743Z,32.97
2023-04-23T12:54:51.700Z,32.03
2023-04-23T12:57:22.113Z,32.29
2023-04-23T12:59:49.279Z,33.35
2023-04-23T13:02:16.051Z,33.86
2023-04-23T13:04:42.746Z,34.30
2023-04-23T13:07:10.019Z,34.44
2023-04-23T13:09:36.689Z,35.04
2023-04-23T13:12:03.467Z,33.85
2023-04-23T13:14:32.050Z,33.93
2023-04-23T13:16:58.669Z,33.67
2023-04-23T13:19:25.512Z,34.57
2023-04-23T13:21:52.202Z,35.12
2023-04-23T13:24:18.836Z,35.85
2023-04-23T13:26:45.449Z,34.97
2023-04-23T13:29:12.195Z,35.07
2023-04-23T13:31:38.910Z,35.52
2023-04-23T13:34:05.583Z,34.99
2023-04-23T13:36:32.239Z,35.58
2023-04-23T13:38:58.842Z,37.43
2023-04-23T13:41:25.538Z,35.99
2023-04-23T13:43:52.608Z,36.59
2023-04-23T13:46:19.710Z,37.49
2023-04-23T13:48:46.584Z,37.80
2023-04-23T13:51:26.460Z,37.60
2023-04-23T13:53:59.640Z,38.80
2023-04-23T13:56:30.399Z,41.54
2023-04-23T13:59:18.066Z,48.39
2023-04-23T14:01:48.336Z,54.26
2023-04-23T14:04:15.470Z,57.29
2023-04-23T14:06:42.659Z,54.19
2023-04-23T14:09:10.001Z,52.30
2023-04-23T14:11:37.364Z,52.94
2023-04-23T14:14:04.378Z,50.44
2023-04-23T14:16:31.040Z,52.50
2023-04-23T14:18:58.483Z,53.77
2023-04-23T14:21:25.190Z,52.66
2023-04-23T14:24:01.947Z,53.17
2023-04-23T14:26:41.218Z,53.42
2023-04-23T14:29:40.967Z,51.67
2023-04-23T14:32:08.077Z,54.16
2023-04-23T14:34:37.319Z,54.01
2023-04-23T14:37:04.465Z,52.49
2023-04-23T14:39:31.433Z,52.38
2023-04-23T14:41:58.155Z,51.02
2023-04-23T14:44:26.839Z,51.53
2023-04-23T14:46:53.499Z,49.57
2023-04-23T14:49:23.087Z,51.76
2023-04-23T14:51:54.102Z,51.51
2023-04-23T14:54:21.626Z,50.34
2023-04-23T14:56:48.448Z,49.62
2023-04-23T14:59:15.161Z,51.24
2023-04-23T15:01:41.940Z,50.45
2023-04-23T15:04:10.720Z,51.71
2023-04-23T15:06:38.310Z,53.70
2023-04-23T15:09:05.110Z,53.06
2023-04-23T15:11:32.348Z,53.53
2023-04-23T15:14:06.332Z,54.38
2023-04-23T15:19:10.214Z,53.48
2023-04-23T15:21:37.454Z,54.53
2023-04-23T15:24:04.408Z,57.56
2023-04-23T15:26:33.514Z,58.40
2023-04-23T15:29:00.535Z,59.07
2023-04-23T15:31:27.355Z,63.87
2023-04-23T15:33:54.021Z,63.85
2023-04-23T15:36:20.691Z,65.79
2023-04-23T15:38:47.354Z,68.40
2023-04-23T15:41:14.131Z,71.01
2023-04-23T15:43:40.860Z,73.20
2023-04-23T15:46:07.561Z,74.36
2023-04-23T15:48:34.173Z,74.45
2023-04-23T15:51:01.030Z,72.71
2023-04-23T15:53:28.263Z,73.04
2023-04-23T15:55:54.883Z,71.88
2023-04-23T15:58:21.506Z,72.70
2023-04-23T16:00:48.229Z,69.30
2023-04-23T16:03:15.675Z,66.78
2023-04-23T16:05:43.116Z,69.19
2023-04-23T16:08:09.920Z,67.05
2023-04-23T16:10:38.043Z,68.07
2023-04-23T16:13:06.030Z,66.18
2023-04-23T16:15:32.813Z,66.51
2023-04-23T16:18:00.197Z,65.48
2023-04-23T16:20:28.282Z,64.29
2023-04-23T16:22:55.192Z,63.87
2023-04-23T16:25:21.939Z,62.77
2023-04-23T16:27:49.000Z,62.30
2023-04-23T16:30:16.412Z,62.20
2023-04-23T16:32:43.215Z,61.99
2023-04-23T16:35:10.302Z,61.69
2023-04-23T16:37:37.046Z,62.13
2023-04-23T16:40:04.529Z,62.64
2023-04-23T16:42:31.500Z,61.78
2023-04-23T16:44:58.258Z,62.11
2023-04-23T16:47:25.157Z,62.40
2023-04-23T16:49:52.848Z,62.29
2023-04-23T16:52:19.691Z,61.82
2023-04-23T16:54:49.258Z,62.19
2023-04-23T16:57:16.913Z,62.17
2023-04-23T16:59:43.625Z,62.85
2023-04-23T17:02:10.375Z,62.75
2023-04-23T17:04:37.527Z,64.68
2023-04-23T17:07:04.380Z,66.85
2023-04-23T17:09:31.753Z,61.22
2023-04-23T17:11:59.166Z,61.65
2023-04-23T17:14:26.481Z,61.06
2023-04-23T17:16:53.116Z,61.07
2023-04-23T17:19:19.818Z,61.62
2023-04-23T17:21:46.528Z,61.08
2023-04-23T17:24:13.217Z,61.18
2023-04-23T17:26:40.008Z,61.37
2023-04-23T17:29:06.976Z,61.12
2023-04-23T17:31:35.853Z,60.60
2023-04-23T17:34:03.477Z,61.54
2023-04-23T17:36:30.122Z,61.63
2023-04-23T17:38:56.894Z,62.99
2023-04-23T17:41:23.828Z,64.12
2023-04-23T17:43:50.536Z,63.71
2023-04-23T17:46:17.334Z,63.72
2023-04-23T17:48:44.844Z,63.30
2023-04-23T17:51:11.572Z,64.13
2023-04-23T17:53:38.349Z,63.30
2023-04-23T17:56:05.435Z,63.55
2023-04-23T17:58:32.106Z,63.34
2023-04-23T18:00:58.970Z,63.79
2023-04-23T18:03:26.552Z,63.77
2023-04-23T18:05:53.965Z,63.19
2023-04-23T18:08:21.226Z,63.36
2023-04-23T18:10:47.956Z,62.57
2023-04-23T18:13:14.932Z,62.58
2023-04-23T18:15:42.254Z,62.86
2023-04-23T18:18:09.158Z,62.87
2023-04-23T18:20:38.522Z,63.59
2023-04-23T18:23:06.428Z,62.43
2023-04-23T18:25:33.154Z,62.88
2023-04-23T18:28:00.096Z,62.95
2023-04-23T18:30:26.877Z,63.07
2023-04-23T18:33:08.477Z,63.18
2023-04-23T18:35:42.589Z,62.47
2023-04-23T18:38:24.324Z,62.65
2023-04-23T18:40:51.388Z,62.56
2023-04-23T18:43:18.677Z,62.43
2023-04-23T18:45:45.351Z,62.00
2023-04-23T18:48:44.934Z,62.50
2023-04-23T18:51:18.818Z,62.38
2023-04-23T18:53:46.214Z,62.56
2023-04-23T18:56:12.830Z,62.46
2023-04-23T18:58:39.479Z,62.58
2023-04-23T19:01:06.252Z,62.29
2023-04-23T19:03:33.150Z,62.75
2023-04-23T19:05:59.896Z,63.71
2023-04-23T19:08:28.772Z,63.93
2023-04-23T19:10:57.269Z,64.16
2023-04-23T19:13:24.362Z,64.36
2023-04-23T19:15:51.472Z,64.48
2023-04-23T19:18:18.753Z,64.58
2023-04-23T19:20:45.580Z,64.39
2023-04-23T19:23:12.318Z,64.46
2023-04-23T19:25:39.292Z,64.28
2023-04-23T19:28:06.029Z,65.13
2023-04-23T19:30:32.738Z,65.45
2023-04-23T19:32:59.556Z,65.41
2023-04-23T19:35:26.520Z,65.54
2023-04-23T19:37:53.571Z,65.75
2023-04-23T19:40:20.347Z,65.69
2023-04-23T19:42:47.104Z,65.71
2023-04-23T19:45:16.472Z,65.62
2023-04-23T19:47:43.281Z,65.20
2023-04-23T19:50:10.509Z,64.72
2023-04-23T19:52:37.187Z,65.03
2023-04-23T19:55:04.300Z,65.33
2023-04-23T19:57:31.047Z,64.54
2023-04-23T19:59:57.862Z,65.28
2023-04-23T20:02:24.881Z,64.56
2023-04-23T20:04:51.811Z,65.36
2023-04-23T20:07:18.723Z,64.24
2023-04-23T20:09:45.581Z,65.17
2023-04-23T20:12:13.830Z,64.24
2023-04-23T20:14:40.468Z,64.60
2023-04-23T20:17:07.906Z,65.77
2023-04-23T20:19:34.803Z,66.84
2023-04-23T20:22:02.475Z,67.12
2023-04-23T20:24:29.224Z,66.30
2023-04-23T20:26:56.540Z,66.73
2023-04-23T20:29:23.239Z,66.07
2023-04-23T20:31:50.018Z,65.53
2023-04-23T20:34:16.895Z,65.92
2023-04-23T20:36:46.894Z,65.65
2023-04-23T20:39:13.848Z,65.85
2023-04-23T20:41:40.839Z,66.21
2023-04-23T20:44:07.513Z,67.23
2023-04-23T20:46:36.547Z,67.52
2023-04-23T20:49:03.822Z,66.64
2023-04-23T20:51:34.546Z,66.73
2023-04-23T20:54:02.299Z,65.62
2023-04-23T20:56:29.844Z,65.55
2023-04-23T20:58:59.944Z,65.41
2023-04-23T21:01:26.972Z,65.33
2023-04-23T21:03:54.096Z,65.59
2023-04-23T21:06:21.698Z,65.91
2023-04-23T21:08:48.868Z,66.98
2023-04-23T21:11:18.154Z,67.30
2023-04-23T21:13:45.944Z,66.26
2023-04-23T21:16:13.326Z,68.42
2023-04-23T21:18:40.368Z,68.85
2023-04-23T21:21:07.867Z,69.18
2023-04-23T21:23:34.719Z,68.66
2023-04-23T21:26:01.776Z,68.66
2023-04-23T21:28:28.407Z,68.94
2023-04-23T21:30:56.880Z,68.77
2023-04-23T21:33:25.322Z,68.72
2023-04-23T21:35:53.498Z,68.29
2023-04-23T21:38:21.298Z,68.17
2023-04-23T21:40:48.121Z,68.08
2023-04-23T21:43:14.882Z,67.82
2023-04-23T21:45:41.631Z,67.91
2023-04-23T21:48:08.559Z,68.94
2023-04-23T21:50:36.022Z,68.36
2023-04-23T21:53:03.886Z,69.55
2023-04-23T21:55:31.680Z,68.96
2023-04-23T21:58:13.344Z,69.48
2023-04-23T22:00:44.620Z,69.33
2023-04-23T22:03:12.412Z,68.48
2023-04-23T22:05:40.811Z,68.76
2023-04-23T22:08:07.542Z,70.23
2023-04-23T22:10:34.369Z,69.78
2023-04-23T22:13:01.272Z,69.28
2023-04-23T22:15:29.241Z,69.35
2023-04-23T22:17:59.119Z,68.99
2023-04-23T22:20:25.928Z,69.29
2023-04-23T22:22:52.747Z,69.33
2023-04-23T22:25:19.490Z,69.58
2023-04-23T22:27:46.179Z,69.83
2023-04-23T22:30:13.268Z,69.61
2023-04-23T22:32:40.864Z,68.98
2023-04-23T22:35:08.284Z,69.63
2023-04-23T22:37:35.678Z,69.70
2023-04-23T22:40:04.096Z,69.46
2023-04-23T22:42:31.039Z,69.31
2023-04-23T22:44:57.845Z,69.48
2023-04-23T22:47:24.948Z,69.83
2023-04-23T22:49:51.621Z,70.34
2023-04-23T22:52:18.350Z,70.26
2023-04-23T22:54:45.136Z,69.90
2023-04-23T22:57:12.037Z,69.65
2023-04-23T22:59:40.186Z,70.65
2023-04-23T23:02:07.503Z,70.21
2023-04-23T23:04:37.742Z,69.56
2023-04-23T23:07:08.375Z,69.49
2023-04-23T23:09:35.123Z,69.24
2023-04-23T23:12:03.253Z,69.53
2023-04-23T23:14:30.578Z,69.78
2023-04-23T23:16:57.485Z,69.90
2023-04-23T23:19:24.866Z,69.08
2023-04-23T23:21:51.733Z,69.12
2023-04-23T23:24:19.114Z,68.57
2023-04-23T23:26:46.555Z,68.41
2023-04-23T23:29:13.331Z,69.48
2023-04-23T23:31:40.258Z,69.63
2023-04-23T23:34:06.943Z,69.23
2023-04-23T23:36:34.131Z,69.81
2023-04-23T23:39:01.165Z,69.69
2023-04-23T23:41:27.840Z,69.43
2023-04-23T23:43:54.708Z,69.23
2023-04-23T23:46:22.583Z,69.39
2023-04-23T23:48:49.563Z,68.99
2023-04-23T23:51:16.368Z,69.50
2023-04-23T23:53:43.199Z,68.50
2023-04-23T23:56:09.874Z,67.96
2023-04-23T23:58:36.616Z,68.34
